.
WxDataArchive / Data Records for 2011-05-09
2011-05-08 May 2011 2011-05-10

Data Records for Monday, 09 May 2011

Time	Temp	Chill	HIndex	Humid	Dewpt	 Wind 	HiWind	WindDir	Rain 	Barom 
-----	----	-----	------	-----	-----	------	------	-------	-----	----- 
00:00	55.0	55.0	55.0	59	40.9	0	1	90	0.00	30.043 
00:05	54.7	54.7	54.7	59	40.7	1	2	90	0.00	30.043 
00:10	54.5	54.5	54.5	61	41.3	0	2	90	0.00	30.043 
00:15	54.1	54.1	54.1	61	41.0	0	0	---	0.00	30.042 
00:20	53.6	53.6	53.6	62	40.9	0	0	---	0.00	30.042 
00:25	53.3	53.3	53.3	62	40.6	0	0	---	0.00	30.042 
00:30	53.1	53.1	53.1	64	41.2	0	0	---	0.00	30.051 
00:35	52.6	52.6	52.6	66	41.6	0	0	---	0.00	30.051 
00:40	52.2	52.2	52.2	67	41.6	0	0	---	0.00	30.051 
00:45	51.7	51.7	51.7	68	41.5	0	1	90	0.00	30.041 
00:50	51.4	51.4	51.4	68	41.2	0	1	90	0.00	30.041 
00:55	51.6	51.6	51.6	68	41.4	0	2	90	0.00	30.041 
01:00	51.6	51.6	51.6	69	41.8	0	1	90	0.00	30.042 
01:05	51.6	51.6	51.6	68	41.4	0	0	---	0.00	30.042 
01:10	51.4	51.4	51.4	69	41.6	0	0	---	0.00	30.042 
01:15	51.4	51.4	51.4	70	41.9	1	2	90	0.00	30.040 
01:20	51.4	51.4	51.4	69	41.6	1	4	90	0.00	30.040 
01:25	51.6	51.6	51.6	69	41.8	0	2	90	0.00	30.040 
01:30	51.6	51.6	51.6	69	41.8	1	3	90	0.00	30.031 
01:35	51.6	51.6	51.6	69	41.8	0	2	90	0.00	30.031 
01:40	51.4	51.4	51.4	70	41.9	0	0	---	0.00	30.031 
01:45	51.3	51.3	51.3	70	41.9	0	0	---	0.00	30.041 
01:50	51.1	51.1	51.1	72	42.4	0	1	90	0.00	30.041 
01:55	51.0	51.0	51.0	72	42.3	0	0	---	0.00	30.041 
02:00	50.8	50.8	50.8	71	41.7	0	1	90	0.00	30.042 
02:05	50.8	50.8	50.8	71	41.7	0	2	90	0.00	30.042 
02:10	50.8	50.8	50.8	71	41.7	0	2	90	0.00	30.042 
02:15	50.7	50.7	50.7	71	41.6	0	0	---	0.00	30.046 
02:20	50.5	50.5	50.5	70	41.1	0	1	90	0.00	30.046 
02:25	50.4	50.4	50.4	71	41.4	0	0	---	0.00	30.046 
02:30	50.2	50.2	50.2	71	41.2	0	0	---	0.00	30.054 
02:35	49.9	49.9	49.9	72	41.2	0	0	---	0.00	30.054 
02:40	49.5	49.5	49.5	73	41.2	0	0	---	0.00	30.054 
02:45	49.2	49.2	49.2	74	41.3	0	0	---	0.00	30.045 
02:50	48.9	48.9	48.9	74	41.0	0	0	---	0.00	30.045 
02:55	48.8	48.8	48.8	75	41.2	0	0	---	0.00	30.045 
03:00	48.6	48.6	48.6	74	40.7	0	1	90	0.00	30.049 
03:05	48.6	48.6	48.6	74	40.7	0	0	---	0.00	30.049 
03:10	48.5	48.5	48.5	74	40.6	0	1	90	0.00	30.049 
03:15	48.5	48.5	48.5	74	40.6	0	0	---	0.00	30.054 
03:20	48.5	48.5	48.5	74	40.6	0	1	90	0.00	30.054 
03:25	48.5	48.5	48.5	74	40.6	0	0	---	0.00	30.054 
03:30	48.5	48.5	48.5	74	40.6	0	0	---	0.00	30.055 
03:35	48.5	48.5	48.5	74	40.6	0	0	---	0.00	30.055 
03:40	48.3	48.3	48.3	74	40.4	0	0	---	0.00	30.055 
03:45	48.3	48.3	48.3	75	40.7	0	1	90	0.00	30.056 
03:50	48.5	48.5	48.5	75	40.9	0	1	90	0.00	30.056 
03:55	48.6	48.6	48.6	74	40.7	0	1	90	0.00	30.056 
04:00	48.6	48.6	48.6	74	40.7	0	1	90	0.00	30.058 
04:05	48.5	48.5	48.5	74	40.6	0	0	---	0.00	30.058 
04:10	48.5	48.5	48.5	75	40.9	0	0	---	0.00	30.058 
04:15	48.2	48.2	48.2	75	40.7	0	1	90	0.00	30.062 
04:20	48.2	48.2	48.2	75	40.7	0	0	---	0.00	30.062 
04:25	48.0	48.0	48.0	76	40.8	0	1	90	0.00	30.062 
04:30	47.9	47.9	47.9	76	40.7	0	1	90	0.00	30.064 
04:35	47.9	47.9	47.9	76	40.7	0	2	90	0.00	30.064 
04:40	47.9	47.9	47.9	77	41.0	0	1	90	0.00	30.064 
04:45	47.7	47.7	47.7	77	40.8	0	2	90	0.00	30.069 
04:50	47.7	47.7	47.7	77	40.8	0	2	90	0.00	30.069 
04:55	47.7	47.7	47.7	77	40.8	0	1	90	0.00	30.069 
05:00	47.6	47.6	47.6	77	40.8	0	2	90	0.00	30.058 
05:05	47.4	47.4	47.4	77	40.6	1	3	90	0.00	30.058 
05:10	47.4	47.4	47.4	77	40.6	0	2	90	0.00	30.058 
05:15	47.3	47.3	47.3	78	40.8	1	2	90	0.00	30.070 
05:20	47.1	47.1	47.1	78	40.6	0	2	90	0.00	30.070 
05:25	46.8	46.8	46.8	78	40.3	0	0	---	0.00	30.070 
05:30	46.7	46.7	46.7	79	40.5	0	0	---	0.00	30.074 
05:35	46.5	46.5	46.5	79	40.3	0	0	---	0.00	30.074 
05:40	46.2	46.2	46.2	80	40.4	0	1	90	0.00	30.074 
05:45	46.2	46.2	46.2	81	40.7	0	0	---	0.00	30.079 
05:50	46.1	46.1	46.1	81	40.6	0	1	90	0.00	30.079 
05:55	46.1	46.1	46.1	81	40.6	0	0	---	0.00	30.079 
06:00	46.2	46.2	46.2	81	40.7	1	3	90	0.00	30.084 
06:05	46.4	46.4	46.4	80	40.6	1	3	112	0.00	30.084 
06:10	46.4	46.4	46.4	80	40.6	0	2	112	0.00	30.084 
06:15	46.4	46.4	46.4	80	40.6	0	2	112	0.00	30.086 
06:20	46.4	46.4	46.4	81	40.9	0	3	112	0.00	30.086 
06:25	46.2	46.2	46.2	81	40.7	1	3	112	0.00	30.086 
06:30	46.2	46.2	46.2	81	40.7	1	4	112	0.00	30.077 
06:35	46.2	46.2	46.2	81	40.7	1	4	68	0.00	30.077 
06:40	46.2	46.2	46.2	80	40.4	1	4	112	0.00	30.077 
06:45	46.2	46.2	46.2	80	40.4	1	3	112	0.00	30.080 
06:50	46.2	46.2	46.2	80	40.4	1	3	112	0.00	30.080 
06:55	46.2	46.2	46.2	80	40.4	2	4	112	0.00	30.080 
07:00	46.4	46.4	46.4	80	40.6	2	5	90	0.00	30.082 
07:05	46.4	46.4	46.4	80	40.6	2	6	90	0.00	30.082 
07:10	46.5	46.5	46.5	79	40.3	2	5	68	0.00	30.082 
07:15	46.5	46.5	46.5	80	40.7	1	3	90	0.00	30.087 
07:20	46.7	46.7	46.7	79	40.5	2	4	112	0.00	30.087 
07:25	46.8	46.8	46.8	79	40.6	1	4	90	0.00	30.087 
07:30	47.0	47.0	47.0	79	40.8	2	4	68	0.00	30.090 
07:35	47.1	47.1	47.1	79	40.9	2	4	68	0.00	30.090 
07:40	47.4	47.4	47.4	78	40.9	1	4	68	0.00	30.090 
07:45	47.7	47.7	47.7	78	41.2	2	4	90	0.00	30.095 
07:50	48.2	48.2	48.2	78	41.7	1	4	90	0.00	30.095 
07:55	48.6	48.6	48.6	77	41.7	1	4	90	0.00	30.095 
08:00	49.2	49.2	49.2	76	42.0	0	3	90	0.00	30.109 
08:05	49.8	49.8	49.8	75	42.2	1	4	90	0.00	30.109 
08:10	50.4	50.4	50.4	74	42.4	2	4	90	0.00	30.109 
08:15	51.0	51.0	51.0	73	42.7	2	6	90	0.00	30.106 
08:20	51.6	51.6	51.6	73	43.2	2	4	90	0.00	30.106 
08:25	51.9	51.9	51.9	71	42.8	4	9	90	0.00	30.106 
08:30	52.0	52.0	52.0	71	42.9	3	6	90	0.00	30.099 
08:35	52.2	52.2	52.2	72	43.4	3	6	90	0.00	30.099 
08:40	52.2	52.2	52.2	71	43.1	4	9	90	0.00	30.099 
08:45	52.5	52.5	52.5	72	43.7	3	7	90	0.00	30.093 
08:50	52.9	52.9	52.9	70	43.4	3	6	112	0.00	30.093 
08:55	53.3	53.3	53.3	68	43.0	4	11	90	0.00	30.093 
09:00	53.8	53.8	53.8	68	43.5	3	12	90	0.00	30.091 
09:05	54.2	54.2	54.2	67	43.5	3	6	90	0.00	30.091 
09:10	54.7	54.7	54.7	66	43.6	3	5	90	0.00	30.091 
09:15	55.1	55.1	55.1	65	43.5	2	5	68	0.00	30.093 
09:20	55.7	55.7	55.7	63	43.3	3	6	112	0.00	30.093 
09:25	56.2	56.2	56.2	62	43.4	2	5	112	0.00	30.093 
09:30	56.6	56.6	56.6	61	43.3	3	5	112	0.00	30.094 
09:35	56.9	56.9	56.9	60	43.2	3	7	90	0.00	30.094 
09:40	57.2	57.2	57.2	60	43.4	4	7	90	0.00	30.094 
09:45	57.5	57.5	57.5	59	43.3	3	10	90	0.00	30.090 
09:50	58.1	58.1	58.1	60	44.3	2	5	112	0.00	30.090 
09:55	58.6	58.6	58.6	58	43.9	3	6	90	0.00	30.090 
10:00	59.2	59.2	59.2	57	44.0	3	7	90	0.00	30.086 
10:05	59.2	59.2	59.2	55	43.0	5	11	90	0.00	30.086 
10:10	59.3	59.3	59.3	56	43.6	3	10	90	0.00	30.086 
10:15	60.1	60.1	60.1	56	44.3	3	6	112	0.00	30.085 
10:20	60.4	60.4	60.4	55	44.2	5	11	112	0.00	30.085 
10:25	60.4	60.4	60.4	53	43.2	3	6	90	0.00	30.085 
10:30	61.0	61.0	61.0	51	42.7	3	6	90	0.00	30.079 
10:35	61.3	61.3	61.3	52	43.5	4	9	90	0.00	30.079 
10:40	61.5	61.5	61.5	51	43.2	5	10	112	0.00	30.079 
10:45	61.6	61.6	61.6	52	43.8	4	8	112	0.00	30.069 
10:50	62.1	62.1	62.1	52	44.3	3	6	90	0.00	30.069 
10:55	62.4	62.4	62.4	49	43.0	6	11	90	0.00	30.069 
11:00	62.6	62.6	62.6	48	42.6	5	9	112	0.00	30.068 
11:05	62.7	62.7	62.7	50	43.8	5	10	90	0.00	30.068 
11:10	62.9	62.9	62.9	47	42.4	5	12	112	0.00	30.068 
11:15	63.2	63.2	63.2	48	43.2	5	12	90	0.00	30.066 
11:20	63.4	63.4	63.4	47	42.8	6	12	112	0.00	30.066 
11:25	63.5	63.5	63.5	45	41.8	5	13	112	0.00	30.066 
11:30	64.2	64.2	64.2	45	42.4	3	16	112	0.00	30.056 
11:35	64.3	64.3	64.3	46	43.1	4	11	112	0.00	30.056 
11:40	64.5	64.5	64.5	43	41.5	5	12	112	0.00	30.056 
11:45	64.5	64.5	64.5	46	43.3	4	11	112	0.00	30.056 
11:50	64.8	64.8	64.8	46	43.5	5	11	112	0.00	30.056 
11:55	65.0	65.0	65.0	45	43.1	4	11	112	0.00	30.056 
12:00	65.2	65.2	65.2	45	43.3	5	11	112	0.00	30.052 
12:05	65.3	65.3	65.3	45	43.4	3	10	90	0.00	30.052 
12:10	65.5	65.5	65.5	44	43.0	5	12	90	0.00	30.052 
12:15	65.6	65.6	65.6	44	43.1	3	7	112	0.00	30.049 
12:20	66.0	66.0	66.0	44	43.5	4	9	90	0.00	30.049 
12:25	66.1	66.1	66.1	44	43.5	4	12	112	0.00	30.049 
12:30	66.0	66.0	66.0	44	43.5	5	10	90	0.00	30.052 
12:35	66.4	66.4	66.4	42	42.6	4	9	90	0.00	30.052 
12:40	66.6	66.6	66.6	42	42.8	4	11	90	0.00	30.052 
12:45	66.6	66.6	66.6	40	41.5	5	10	90	0.00	30.053 
12:50	66.8	66.8	66.8	44	44.2	3	9	90	0.00	30.053 
12:55	67.1	67.1	67.1	39	41.3	5	18	112	0.00	30.053 
13:00	67.1	67.1	67.1	39	41.3	5	11	90	0.00	30.042 
13:05	67.1	67.1	67.1	39	41.3	5	11	112	0.00	30.042 
13:10	67.4	67.4	67.4	40	42.2	5	10	90	0.00	30.042 
13:15	67.6	67.6	67.6	38	41.1	5	10	90	0.00	30.033 
13:20	67.6	67.6	67.6	38	41.1	6	12	90	0.00	30.033 
13:25	67.8	67.8	67.8	39	41.9	6	11	90	0.00	30.033 
13:30	67.9	67.9	67.9	41	43.3	5	13	90	0.00	30.022 
13:35	67.9	67.9	67.9	37	40.7	6	13	90	0.00	30.022 
13:40	68.4	68.4	68.4	36	40.4	5	11	90	0.00	30.022 
13:45	68.4	68.4	68.4	34	38.9	6	14	90	0.00	30.015 
13:50	68.6	68.6	68.6	35	39.8	4	9	112	0.00	30.015 
13:55	69.1	69.1	69.1	35	40.3	4	12	90	0.00	30.015 
14:00	69.1	69.1	69.1	35	40.3	5	14	112	0.00	30.018 
14:05	68.9	68.9	68.9	35	40.1	6	12	112	0.00	30.018 
14:10	69.1	69.1	69.1	39	43.1	5	14	90	0.00	30.018 
14:15	68.9	68.9	68.9	33	38.6	5	12	90	0.00	30.033 
14:20	69.3	69.3	69.3	37	41.9	5	11	90	0.00	30.033 
14:25	69.6	69.6	69.6	37	42.2	4	10	90	0.00	30.033 
14:30	69.8	69.8	69.8	35	40.9	5	11	90	0.00	30.021 
14:35	69.8	69.8	69.8	36	41.6	5	10	112	0.00	30.021 
14:40	69.8	69.8	69.8	36	41.6	4	12	112	0.00	30.021 
14:45	69.8	69.8	69.8	37	42.3	4	7	90	0.00	30.021 
14:50	70.1	70.1	70.1	36	41.9	3	7	112	0.00	30.021 
14:55	70.4	70.4	70.4	35	41.4	3	6	112	0.00	30.021 
15:00	70.4	70.4	70.4	36	42.2	4	12	68	0.00	30.008 
15:05	70.6	70.6	70.6	32	39.3	2	9	90	0.00	30.008 
15:10	70.8	70.8	70.8	33	40.3	4	10	90	0.00	30.008 
15:15	70.4	70.4	70.4	34	40.7	4	13	112	0.00	30.017 
15:20	70.6	70.6	70.6	33	40.1	2	4	112	0.00	30.017 
15:25	71.1	71.1	71.1	33	40.5	3	6	90	0.00	30.017 
15:30	71.5	71.5	71.5	33	40.9	3	11	90	0.00	30.012 
15:35	71.1	71.1	71.1	32	39.7	3	11	112	0.00	30.012 
15:40	70.6	70.6	70.6	33	40.1	3	9	112	0.00	30.012 
15:45	70.3	70.3	70.3	34	40.6	3	9	112	0.00	30.019 
15:50	70.1	70.1	70.1	36	41.9	3	7	90	0.00	30.019 
15:55	70.3	70.3	70.3	34	40.6	4	9	90	0.00	30.019 
16:00	70.4	70.4	70.4	35	41.4	4	10	90	0.00	30.012 
16:05	70.8	70.8	70.8	32	39.5	3	9	112	0.00	30.012 
16:10	70.8	70.8	70.8	33	40.3	2	5	112	0.00	30.012 
16:15	70.6	70.6	70.6	35	41.6	4	10	90	0.00	30.008 
16:20	70.6	70.6	70.6	33	40.1	5	8	112	0.00	30.008 
16:25	70.6	70.6	70.6	34	40.9	3	7	112	0.00	30.008 
16:30	70.6	70.6	70.6	35	41.6	3	9	90	0.00	30.000 
16:35	70.8	70.8	70.8	37	43.2	2	5	112	0.00	30.000 
16:40	70.8	70.8	70.8	33	40.3	4	10	112	0.00	30.000 
16:45	70.4	70.4	70.4	33	39.9	4	10	112	0.00	29.995 
16:50	70.1	70.1	70.1	33	39.7	3	10	90	0.00	29.995 
16:55	70.3	70.3	70.3	33	39.8	4	13	90	0.00	29.995 
17:00	70.6	70.6	70.6	33	40.1	3	9	90	0.00	29.990 
17:05	70.4	70.4	70.4	35	41.4	3	8	112	0.00	29.990 
17:10	70.1	70.1	70.1	35	41.2	5	9	90	0.00	29.990 
17:15	70.1	70.1	70.1	34	40.4	5	11	112	0.00	29.966 
17:20	70.4	70.4	70.4	33	39.9	5	13	90	0.00	29.966 
17:25	70.6	70.6	70.6	32	39.3	5	10	112	0.00	29.966 
17:30	70.8	70.8	70.8	34	41.0	4	9	90	0.00	29.961 
17:35	70.6	70.6	70.6	33	40.1	5	12	112	0.00	29.961 
17:40	70.6	70.6	70.6	33	40.1	5	11	90	0.00	29.961 
17:45	70.4	70.4	70.4	34	40.7	6	11	90	0.00	29.951 
17:50	70.3	70.3	70.3	35	41.3	4	8	112	0.00	29.951 
17:55	69.9	69.9	69.9	34	40.2	5	10	90	0.00	29.951 
18:00	69.6	69.6	69.6	34	40.0	6	15	112	0.00	29.942 
18:05	69.8	69.8	69.8	34	40.2	4	10	112	0.00	29.942 
18:10	69.8	69.8	69.8	33	39.4	5	11	90	0.00	29.942 
18:15	69.6	69.6	69.6	33	39.2	5	12	112	0.00	29.933 
18:20	69.4	69.4	69.4	34	39.8	5	11	112	0.00	29.933 
18:25	69.4	69.4	69.4	35	40.6	3	6	112	0.00	29.933 
18:30	69.3	69.3	69.3	34	39.7	3	6	112	0.00	29.947 
18:35	69.3	69.3	69.3	34	39.7	4	7	90	0.00	29.947 
18:40	69.1	69.1	69.1	36	41.0	3	8	112	0.00	29.947 
18:45	69.1	69.1	69.1	36	41.0	3	5	112	0.00	29.938 
18:50	68.9	68.9	68.9	36	40.8	4	7	90	0.00	29.938 
18:55	68.8	68.8	68.8	36	40.7	4	10	90	0.00	29.938 
19:00	68.6	68.6	68.6	35	39.8	4	11	90	0.00	29.935 
19:05	68.4	68.4	68.4	35	39.7	4	7	112	0.00	29.935 
19:10	68.3	68.3	68.3	37	41.0	3	6	90	0.00	29.935 
19:15	68.1	68.1	68.1	36	40.1	3	7	90	0.00	29.946 
19:20	67.9	67.9	67.9	38	41.3	2	5	112	0.00	29.946 
19:25	67.8	67.8	67.8	38	41.3	2	5	112	0.00	29.946 
19:30	67.8	67.8	67.8	37	40.6	2	6	112	0.00	29.948 
19:35	67.6	67.6	67.6	35	39.0	3	6	112	0.00	29.948 
19:40	67.6	67.6	67.6	37	40.4	2	5	68	0.00	29.948 
19:45	67.6	67.6	67.6	38	41.1	2	5	90	0.00	29.945 
19:50	67.4	67.4	67.4	38	40.9	3	10	90	0.00	29.945 
19:55	67.3	67.3	67.3	39	41.5	4	7	112	0.00	29.945 
20:00	67.1	67.1	67.1	39	41.3	3	6	68	0.00	29.929 
20:05	66.9	66.9	66.9	39	41.1	3	7	90	0.00	29.929 
20:10	66.9	66.9	66.9	40	41.8	3	7	90	0.00	29.929 
20:15	66.9	66.9	66.9	39	41.1	3	5	112	0.00	29.939 
20:20	66.6	66.6	66.6	42	42.8	5	12	112	0.00	29.939 
20:25	65.6	65.6	65.6	45	43.7	7	14	90	0.00	29.939 
20:30	64.8	64.8	64.8	47	44.1	6	12	90	0.00	29.927 
20:35	64.2	64.2	64.2	48	44.1	5	10	90	0.00	29.927 
20:40	63.5	63.5	63.5	49	44.0	6	12	90	0.00	29.927 
20:45	62.9	62.9	62.9	50	44.0	6	14	90	0.00	29.914 
20:50	62.4	62.4	62.4	50	43.5	6	13	90	0.00	29.914 
20:55	62.0	62.0	62.0	51	43.7	6	15	90	0.00	29.914 
21:00	61.6	61.6	61.6	51	43.3	5	17	90	0.00	29.913 
21:05	61.3	61.3	61.3	52	43.5	4	7	90	0.00	29.913 
21:10	61.2	61.2	61.2	51	42.9	4	10	90	0.00	29.913 
21:15	61.0	61.0	61.0	50	42.2	4	11	112	0.00	29.918 
21:20	60.9	60.9	60.9	51	42.6	4	14	90	0.00	29.918 
21:25	60.7	60.7	60.7	52	43.0	3	6	112	0.00	29.918 
21:30	60.4	60.4	60.4	53	43.2	3	7	112	0.00	29.927 
21:35	60.1	60.1	60.1	52	42.4	4	7	112	0.00	29.927 
21:40	59.8	59.8	59.8	50	41.1	4	7	90	0.00	29.927 
21:45	59.6	59.6	59.6	50	40.9	4	8	112	0.00	29.942 
21:50	59.5	59.5	59.5	51	41.4	3	9	112	0.00	29.942 
21:55	59.3	59.3	59.3	51	41.2	4	9	90	0.00	29.942 
22:00	59.3	59.3	59.3	51	41.2	4	9	112	0.00	29.944 
22:05	59.2	59.2	59.2	51	41.1	4	7	112	0.00	29.944 
22:10	59.0	59.0	59.0	51	40.9	4	9	112	0.00	29.944 
22:15	58.9	58.9	58.9	52	41.3	3	6	112	0.00	29.954 
22:20	58.7	58.7	58.7	52	41.1	4	11	112	0.00	29.954 
22:25	58.4	58.4	58.4	53	41.3	4	10	112	0.00	29.954 
22:30	58.3	58.3	58.3	53	41.2	4	14	90	0.00	29.945 
22:35	58.1	58.1	58.1	53	41.1	4	10	90	0.00	29.945 
22:40	58.0	58.0	58.0	53	41.0	3	7	112	0.00	29.945 
22:45	58.0	58.0	58.0	54	41.4	3	6	90	0.00	29.947 
22:50	57.8	57.8	57.8	54	41.3	3	9	112	0.00	29.947 
22:55	57.5	57.5	57.5	54	41.0	3	6	90	0.00	29.947 
23:00	57.3	57.3	57.3	54	40.8	3	7	90	0.00	29.945 
23:05	57.2	57.2	57.2	53	40.2	3	9	112	0.00	29.945 
23:10	57.0	57.0	57.0	53	40.0	2	6	90	0.00	29.945 
23:15	56.9	56.9	56.9	54	40.4	2	9	90	0.00	29.941 
23:20	56.7	56.7	56.7	56	41.2	1	3	90	0.00	29.941 
23:25	56.3	56.3	56.3	56	40.8	2	7	90	0.00	29.941 
23:30	56.0	56.0	56.0	56	40.5	2	5	90	0.00	29.939 
23:35	55.9	55.9	55.9	56	40.4	2	5	90	0.00	29.939 
23:40	55.7	55.7	55.7	57	40.7	2	5	90	0.00	29.939 
23:45	55.6	55.6	55.6	56	40.2	3	6	90	0.00	29.940 
23:50	55.6	55.6	55.6	56	40.2	3	9	90	0.00	29.940 
23:55	55.6	55.6	55.6	55	39.7	4	8	90	0.00	29.940 

CoCoRaHS
IN-AL-39
A2 Web Hosting
Creative Commons License
GoDaddy
search engine by freefind advanced

loaded 2018-11-12 15:46:53 • last modified 2010-11-18 10:43:29
Privacy PolicyDisclaimer
• wx.awcolley.com is powered by PmWiki v.2002016 •
• all content (unless otherwise noted) © 2018 A W Colley